sensor_id;sensor_type;location;lat;lon;timestamp;temperature;humidity
67279;DHT22;54193;53.746;10.058;2024-01-27T00:02:33;6.24;86.37
67279;DHT22;54193;53.746;10.058;2024-01-27T00:05:20;6.04;86.77
67279;DHT22;54193;53.746;10.058;2024-01-27T00:08:05;6.06;86.57
67279;DHT22;54193;53.746;10.058;2024-01-27T00:10:51;6.16;86.59
67279;DHT22;54193;53.746;10.058;2024-01-27T00:13:37;6.21;86.72
67279;DHT22;54193;53.746;10.058;2024-01-27T00:16:23;6.32;86.48
67279;DHT22;54193;53.746;10.058;2024-01-27T00:19:08;6.16;86.67
67279;DHT22;54193;53.746;10.058;2024-01-27T00:21:54;6.10;86.48
67279;DHT22;54193;53.746;10.058;2024-01-27T00:24:40;6.31;86.14
67279;DHT22;54193;53.746;10.058;2024-01-27T00:27:25;6.25;86.09
67279;DHT22;54193;53.746;10.058;2024-01-27T00:30:11;6.23;86.15
67279;DHT22;54193;53.746;10.058;2024-01-27T00:32:57;6.32;85.79
67279;DHT22;54193;53.746;10.058;2024-01-27T00:35:43;6.32;85.89
67279;DHT22;54193;53.746;10.058;2024-01-27T00:38:28;6.04;86.00
67279;DHT22;54193;53.746;10.058;2024-01-27T00:41:18;6.18;86.06
67279;DHT22;54193;53.746;10.058;2024-01-27T00:44:03;6.20;85.86
67279;DHT22;54193;53.746;10.058;2024-01-27T00:46:49;6.34;85.23
67279;DHT22;54193;53.746;10.058;2024-01-27T00:49:35;6.27;85.74
67279;DHT22;54193;53.746;10.058;2024-01-27T00:52:20;6.30;85.70
67279;DHT22;54193;53.746;10.058;2024-01-27T00:55:06;6.28;85.76
67279;DHT22;54193;53.746;10.058;2024-01-27T00:57:52;6.37;85.79
67279;DHT22;54193;53.746;10.058;2024-01-27T01:00:39;6.44;85.24
67279;DHT22;54193;53.746;10.058;2024-01-27T01:03:24;6.25;85.83
67279;DHT22;54193;53.746;10.058;2024-01-27T01:06:10;6.18;86.14
67279;DHT22;54193;53.746;10.058;2024-01-27T01:08:56;6.10;86.08
67279;DHT22;54193;53.746;10.058;2024-01-27T01:11:41;6.21;86.26
67279;DHT22;54193;53.746;10.058;2024-01-27T01:14:27;6.27;86.33
67279;DHT22;54193;53.746;10.058;2024-01-27T01:17:13;6.09;86.25
67279;DHT22;54193;53.746;10.058;2024-01-27T01:19:58;6.32;86.04
67279;DHT22;54193;53.746;10.058;2024-01-27T01:22:44;6.25;86.19
67279;DHT22;54193;53.746;10.058;2024-01-27T01:25:30;6.25;86.27
67279;DHT22;54193;53.746;10.058;2024-01-27T01:28:16;6.27;86.55
67279;DHT22;54193;53.746;10.058;2024-01-27T01:31:02;6.37;86.13
67279;DHT22;54193;53.746;10.058;2024-01-27T01:33:47;6.41;86.00
67279;DHT22;54193;53.746;10.058;2024-01-27T01:36:33;6.53;86.32
67279;DHT22;54193;53.746;10.058;2024-01-27T01:39:19;6.38;86.79
67279;DHT22;54193;53.746;10.058;2024-01-27T01:42:05;6.35;86.99
67279;DHT22;54193;53.746;10.058;2024-01-27T01:44:51;6.49;87.07
67279;DHT22;54193;53.746;10.058;2024-01-27T01:47:37;6.46;86.60
67279;DHT22;54193;53.746;10.058;2024-01-27T01:50:23;6.44;86.53
67279;DHT22;54193;53.746;10.058;2024-01-27T01:53:09;6.44;86.51
67279;DHT22;54193;53.746;10.058;2024-01-27T01:55:55;6.58;86.44
67279;DHT22;54193;53.746;10.058;2024-01-27T01:58:41;6.61;86.53
67279;DHT22;54193;53.746;10.058;2024-01-27T02:01:26;6.45;86.35
67279;DHT22;54193;53.746;10.058;2024-01-27T02:04:12;6.37;86.49
67279;DHT22;54193;53.746;10.058;2024-01-27T02:06:58;6.55;86.46
67279;DHT22;54193;53.746;10.058;2024-01-27T02:09:43;6.49;86.49
67279;DHT22;54193;53.746;10.058;2024-01-27T02:12:29;6.41;86.22
67279;DHT22;54193;53.746;10.058;2024-01-27T02:15:15;6.40;86.36
67279;DHT22;54193;53.746;10.058;2024-01-27T02:18:01;6.37;86.39
67279;DHT22;54193;53.746;10.058;2024-01-27T02:20:46;6.51;86.04
67279;DHT22;54193;53.746;10.058;2024-01-27T02:23:32;6.48;85.55
67279;DHT22;54193;53.746;10.058;2024-01-27T02:26:18;6.44;85.79
67279;DHT22;54193;53.746;10.058;2024-01-27T02:29:03;6.45;85.99
67279;DHT22;54193;53.746;10.058;2024-01-27T02:31:49;6.58;85.78
67279;DHT22;54193;53.746;10.058;2024-01-27T02:34:34;6.51;85.98
67279;DHT22;54193;53.746;10.058;2024-01-27T02:37:20;6.51;85.82
67279;DHT22;54193;53.746;10.058;2024-01-27T02:40:07;6.58;85.85
67279;DHT22;54193;53.746;10.058;2024-01-27T02:42:53;6.64;86.03
67279;DHT22;54193;53.746;10.058;2024-01-27T02:45:39;6.67;85.87
67279;DHT22;54193;53.746;10.058;2024-01-27T02:48:25;6.59;86.32
67279;DHT22;54193;53.746;10.058;2024-01-27T02:51:10;6.59;85.75
67279;DHT22;54193;53.746;10.058;2024-01-27T02:53:56;6.61;85.93
67279;DHT22;54193;53.746;10.058;2024-01-27T02:56:42;6.71;85.76
67279;DHT22;54193;53.746;10.058;2024-01-27T02:59:27;6.69;86.19
67279;DHT22;54193;53.746;10.058;2024-01-27T03:02:13;6.82;85.76
67279;DHT22;54193;53.746;10.058;2024-01-27T03:04:59;6.67;85.50
67279;DHT22;54193;53.746;10.058;2024-01-27T03:07:45;6.67;86.45
67279;DHT22;54193;53.746;10.058;2024-01-27T03:10:30;6.89;85.71
67279;DHT22;54193;53.746;10.058;2024-01-27T03:13:16;6.64;86.03
67279;DHT22;54193;53.746;10.058;2024-01-27T03:16:08;6.72;86.28
67279;DHT22;54193;53.746;10.058;2024-01-27T03:18:54;6.52;86.68
67279;DHT22;54193;53.746;10.058;2024-01-27T03:21:40;6.61;86.88
67279;DHT22;54193;53.746;10.058;2024-01-27T03:24:25;6.61;86.40
67279;DHT22;54193;53.746;10.058;2024-01-27T03:27:11;6.42;86.79
67279;DHT22;54193;53.746;10.058;2024-01-27T03:30:00;6.59;86.68
67279;DHT22;54193;53.746;10.058;2024-01-27T03:32:46;6.55;86.91
67279;DHT22;54193;53.746;10.058;2024-01-27T03:35:32;6.41;86.79
67279;DHT22;54193;53.746;10.058;2024-01-27T03:38:17;6.53;87.17
67279;DHT22;54193;53.746;10.058;2024-01-27T03:41:04;6.46;86.76
67279;DHT22;54193;53.746;10.058;2024-01-27T03:43:49;6.41;86.90
67279;DHT22;54193;53.746;10.058;2024-01-27T03:46:35;6.64;86.87
67279;DHT22;54193;53.746;10.058;2024-01-27T03:49:23;6.21;87.46
67279;DHT22;54193;53.746;10.058;2024-01-27T03:52:08;6.35;87.22
67279;DHT22;54193;53.746;10.058;2024-01-27T03:54:54;6.35;87.35
67279;DHT22;54193;53.746;10.058;2024-01-27T03:57:39;6.30;87.39
67279;DHT22;54193;53.746;10.058;2024-01-27T04:00:25;6.35;87.36
67279;DHT22;54193;53.746;10.058;2024-01-27T04:03:12;6.28;87.34
67279;DHT22;54193;53.746;10.058;2024-01-27T04:05:58;6.34;87.67
67279;DHT22;54193;53.746;10.058;2024-01-27T04:08:43;6.24;87.55
67279;DHT22;54193;53.746;10.058;2024-01-27T04:11:30;6.25;87.09
67279;DHT22;54193;53.746;10.058;2024-01-27T04:14:15;6.25;87.46
67279;DHT22;54193;53.746;10.058;2024-01-27T04:17:01;6.30;87.65
67279;DHT22;54193;53.746;10.058;2024-01-27T04:19:47;6.30;87.64
67279;DHT22;54193;53.746;10.058;2024-01-27T04:22:33;6.21;87.48
67279;DHT22;54193;53.746;10.058;2024-01-27T04:25:19;6.17;87.80
67279;DHT22;54193;53.746;10.058;2024-01-27T04:28:05;6.20;87.64
67279;DHT22;54193;53.746;10.058;2024-01-27T04:30:51;6.13;88.23
67279;DHT22;54193;53.746;10.058;2024-01-27T04:33:36;6.17;87.85
67279;DHT22;54193;53.746;10.058;2024-01-27T04:36:26;6.10;87.68
67279;DHT22;54193;53.746;10.058;2024-01-27T04:39:12;6.11;87.69
67279;DHT22;54193;53.746;10.058;2024-01-27T04:41:59;6.28;87.75
67279;DHT22;54193;53.746;10.058;2024-01-27T04:44:44;6.17;88.20
67279;DHT22;54193;53.746;10.058;2024-01-27T04:47:31;6.30;88.02
67279;DHT22;54193;53.746;10.058;2024-01-27T04:50:16;6.30;87.88
67279;DHT22;54193;53.746;10.058;2024-01-27T04:53:02;6.11;88.01
67279;DHT22;54193;53.746;10.058;2024-01-27T04:55:48;6.18;87.91
67279;DHT22;54193;53.746;10.058;2024-01-27T04:58:34;6.21;87.92
67279;DHT22;54193;53.746;10.058;2024-01-27T05:01:20;6.11;88.56
67279;DHT22;54193;53.746;10.058;2024-01-27T05:04:06;6.14;88.42
67279;DHT22;54193;53.746;10.058;2024-01-27T05:06:52;6.16;88.43
67279;DHT22;54193;53.746;10.058;2024-01-27T05:09:38;6.10;88.34
67279;DHT22;54193;53.746;10.058;2024-01-27T05:12:23;5.89;88.58
67279;DHT22;54193;53.746;10.058;2024-01-27T05:15:10;5.94;88.71
67279;DHT22;54193;53.746;10.058;2024-01-27T05:17:56;6.02;88.73
67279;DHT22;54193;53.746;10.058;2024-01-27T05:20:42;6.07;88.49
67279;DHT22;54193;53.746;10.058;2024-01-27T05:23:27;6.00;88.38
67279;DHT22;54193;53.746;10.058;2024-01-27T05:26:13;6.02;88.49
67279;DHT22;54193;53.746;10.058;2024-01-27T05:28:59;5.83;88.71
67279;DHT22;54193;53.746;10.058;2024-01-27T05:31:45;5.90;88.64
67279;DHT22;54193;53.746;10.058;2024-01-27T05:34:30;5.92;88.57
67279;DHT22;54193;53.746;10.058;2024-01-27T05:37:16;5.96;88.83
67279;DHT22;54193;53.746;10.058;2024-01-27T05:40:02;6.02;88.72
67279;DHT22;54193;53.746;10.058;2024-01-27T05:42:48;6.06;88.37
67279;DHT22;54193;53.746;10.058;2024-01-27T05:45:34;6.03;88.58
67279;DHT22;54193;53.746;10.058;2024-01-27T05:48:20;6.17;88.33
67279;DHT22;54193;53.746;10.058;2024-01-27T05:51:06;5.94;88.28
67279;DHT22;54193;53.746;10.058;2024-01-27T05:53:51;5.97;88.06
67279;DHT22;54193;53.746;10.058;2024-01-27T05:56:37;6.03;87.93
67279;DHT22;54193;53.746;10.058;2024-01-27T05:59:23;5.99;88.27
67279;DHT22;54193;53.746;10.058;2024-01-27T06:02:09;6.02;88.50
67279;DHT22;54193;53.746;10.058;2024-01-27T06:04:55;5.92;88.31
67279;DHT22;54193;53.746;10.058;2024-01-27T06:07:41;5.86;88.32
67279;DHT22;54193;53.746;10.058;2024-01-27T06:10:27;5.69;88.61
67279;DHT22;54193;53.746;10.058;2024-01-27T06:13:13;5.72;89.16
67279;DHT22;54193;53.746;10.058;2024-01-27T06:15:58;5.87;88.90
67279;DHT22;54193;53.746;10.058;2024-01-27T06:18:45;5.66;88.75
67279;DHT22;54193;53.746;10.058;2024-01-27T06:21:30;5.70;89.32
67279;DHT22;54193;53.746;10.058;2024-01-27T06:24:16;5.65;89.07
67279;DHT22;54193;53.746;10.058;2024-01-27T06:27:02;5.65;89.02
67279;DHT22;54193;53.746;10.058;2024-01-27T06:29:47;5.58;88.87
67279;DHT22;54193;53.746;10.058;2024-01-27T06:32:33;5.52;89.42
67279;DHT22;54193;53.746;10.058;2024-01-27T06:35:18;5.51;89.12
67279;DHT22;54193;53.746;10.058;2024-01-27T06:38:04;5.54;89.34
67279;DHT22;54193;53.746;10.058;2024-01-27T06:40:50;5.41;89.29
67279;DHT22;54193;53.746;10.058;2024-01-27T06:43:36;5.24;89.66
67279;DHT22;54193;53.746;10.058;2024-01-27T06:46:21;5.20;89.68
67279;DHT22;54193;53.746;10.058;2024-01-27T06:49:07;5.03;90.06
67279;DHT22;54193;53.746;10.058;2024-01-27T06:51:52;4.93;90.21
67279;DHT22;54193;53.746;10.058;2024-01-27T06:54:38;4.83;90.08
67279;DHT22;54193;53.746;10.058;2024-01-27T06:57:29;4.71;90.35
67279;DHT22;54193;53.746;10.058;2024-01-27T07:00:15;4.61;90.50
67279;DHT22;54193;53.746;10.058;2024-01-27T07:03:01;4.59;90.85
67279;DHT22;54193;53.746;10.058;2024-01-27T07:05:48;4.55;90.81
67279;DHT22;54193;53.746;10.058;2024-01-27T07:08:33;4.46;90.91
67279;DHT22;54193;53.746;10.058;2024-01-27T07:11:19;4.40;91.04
67279;DHT22;54193;53.746;10.058;2024-01-27T07:14:04;4.38;91.05
67279;DHT22;54193;53.746;10.058;2024-01-27T07:16:51;4.38;91.12
67279;DHT22;54193;53.746;10.058;2024-01-27T07:19:37;4.33;91.29
67279;DHT22;54193;53.746;10.058;2024-01-27T07:22:23;4.31;91.11
67279;DHT22;54193;53.746;10.058;2024-01-27T07:25:09;4.38;91.23
67279;DHT22;54193;53.746;10.058;2024-01-27T07:27:55;4.33;91.38
67279;DHT22;54193;53.746;10.058;2024-01-27T07:30:41;4.40;91.23
67279;DHT22;54193;53.746;10.058;2024-01-27T07:33:27;4.33;91.26
67279;DHT22;54193;53.746;10.058;2024-01-27T07:36:13;4.24;91.52
67279;DHT22;54193;53.746;10.058;2024-01-27T07:38:58;4.22;91.42
67279;DHT22;54193;53.746;10.058;2024-01-27T07:41:44;4.21;91.36
67279;DHT22;54193;53.746;10.058;2024-01-27T07:44:30;4.21;91.55
67279;DHT22;54193;53.746;10.058;2024-01-27T07:47:15;4.21;91.38
67279;DHT22;54193;53.746;10.058;2024-01-27T07:50:01;4.37;91.41
67279;DHT22;54193;53.746;10.058;2024-01-27T07:52:47;4.46;91.48
67279;DHT22;54193;53.746;10.058;2024-01-27T07:55:32;4.61;91.57
67279;DHT22;54193;53.746;10.058;2024-01-27T07:58:18;4.69;91.34
67279;DHT22;54193;53.746;10.058;2024-01-27T08:01:04;4.79;91.16
67279;DHT22;54193;53.746;10.058;2024-01-27T08:03:49;4.73;90.71
67279;DHT22;54193;53.746;10.058;2024-01-27T08:06:49;4.75;90.88
67279;DHT22;54193;53.746;10.058;2024-01-27T08:09:35;4.86;90.80
67279;DHT22;54193;53.746;10.058;2024-01-27T08:12:21;4.96;90.49
67279;DHT22;54193;53.746;10.058;2024-01-27T08:15:07;4.96;90.12
67279;DHT22;54193;53.746;10.058;2024-01-27T08:17:53;4.94;89.95
67279;DHT22;54193;53.746;10.058;2024-01-27T08:20:38;4.92;89.72
67279;DHT22;54193;53.746;10.058;2024-01-27T08:23:24;5.10;89.56
67279;DHT22;54193;53.746;10.058;2024-01-27T08:26:10;5.00;89.10
67279;DHT22;54193;53.746;10.058;2024-01-27T08:28:55;5.07;89.56
67279;DHT22;54193;53.746;10.058;2024-01-27T08:31:41;5.18;89.57
67279;DHT22;54193;53.746;10.058;2024-01-27T08:34:27;4.90;89.14
67279;DHT22;54193;53.746;10.058;2024-01-27T08:37:19;5.13;88.86
67279;DHT22;54193;53.746;10.058;2024-01-27T08:40:06;5.13;89.07
67279;DHT22;54193;53.746;10.058;2024-01-27T08:42:52;5.13;88.77
67279;DHT22;54193;53.746;10.058;2024-01-27T08:45:38;5.10;88.84
67279;DHT22;54193;53.746;10.058;2024-01-27T08:48:24;5.17;88.97
67279;DHT22;54193;53.746;10.058;2024-01-27T08:51:10;5.07;88.61
67279;DHT22;54193;53.746;10.058;2024-01-27T08:53:55;4.99;88.81
67279;DHT22;54193;53.746;10.058;2024-01-27T08:56:49;5.21;88.79
67279;DHT22;54193;53.746;10.058;2024-01-27T08:59:34;5.24;88.66
67279;DHT22;54193;53.746;10.058;2024-01-27T09:02:21;5.55;88.14
67279;DHT22;54193;53.746;10.058;2024-01-27T09:05:06;5.73;87.85
67279;DHT22;54193;53.746;10.058;2024-01-27T09:07:52;5.83;86.99
67279;DHT22;54193;53.746;10.058;2024-01-27T09:10:38;5.87;86.68
67279;DHT22;54193;53.746;10.058;2024-01-27T09:13:23;6.03;86.31
67279;DHT22;54193;53.746;10.058;2024-01-27T09:16:09;6.23;86.02
67279;DHT22;54193;53.746;10.058;2024-01-27T09:18:57;6.11;85.93
67279;DHT22;54193;53.746;10.058;2024-01-27T09:21:43;6.25;84.96
67279;DHT22;54193;53.746;10.058;2024-01-27T09:24:29;6.07;85.28
67279;DHT22;54193;53.746;10.058;2024-01-27T09:27:14;6.30;84.51
67279;DHT22;54193;53.746;10.058;2024-01-27T09:30:00;6.40;85.15
67279;DHT22;54193;53.746;10.058;2024-01-27T09:32:46;6.83;83.43
67279;DHT22;54193;53.746;10.058;2024-01-27T09:35:31;7.37;81.26
67279;DHT22;54193;53.746;10.058;2024-01-27T09:38:17;7.52;80.94
67279;DHT22;54193;53.746;10.058;2024-01-27T09:41:03;7.75;80.45
67279;DHT22;54193;53.746;10.058;2024-01-27T09:43:49;7.44;79.77
67279;DHT22;54193;53.746;10.058;2024-01-27T09:46:34;7.89;79.64
67279;DHT22;54193;53.746;10.058;2024-01-27T09:49:20;7.73;80.62
67279;DHT22;54193;53.746;10.058;2024-01-27T09:52:06;8.06;79.88
67279;DHT22;54193;53.746;10.058;2024-01-27T09:54:51;8.00;78.39
67279;DHT22;54193;53.746;10.058;2024-01-27T09:57:38;8.82;77.51
67279;DHT22;54193;53.746;10.058;2024-01-27T10:00:25;7.54;80.58
67279;DHT22;54193;53.746;10.058;2024-01-27T10:03:11;8.09;80.43
67279;DHT22;54193;53.746;10.058;2024-01-27T10:05:57;7.44;81.66
67279;DHT22;54193;53.746;10.058;2024-01-27T10:08:53;6.93;82.96
67279;DHT22;54193;53.746;10.058;2024-01-27T10:11:39;7.10;82.19
67279;DHT22;54193;53.746;10.058;2024-01-27T10:14:42;6.82;82.83
67279;DHT22;54193;53.746;10.058;2024-01-27T10:17:30;6.89;83.24
67279;DHT22;54193;53.746;10.058;2024-01-27T10:20:21;6.95;82.89
67279;DHT22;54193;53.746;10.058;2024-01-27T10:23:12;7.03;82.92
67279;DHT22;54193;53.746;10.058;2024-01-27T10:25:58;6.71;82.87
67279;DHT22;54193;53.746;10.058;2024-01-27T10:28:56;6.93;82.91
67279;DHT22;54193;53.746;10.058;2024-01-27T10:31:42;6.88;82.74
67279;DHT22;54193;53.746;10.058;2024-01-27T10:34:28;7.04;82.58
67279;DHT22;54193;53.746;10.058;2024-01-27T10:37:14;7.00;83.04
67279;DHT22;54193;53.746;10.058;2024-01-27T10:40:09;7.03;83.14
67279;DHT22;54193;53.746;10.058;2024-01-27T10:43:05;6.99;82.74
67279;DHT22;54193;53.746;10.058;2024-01-27T10:45:51;7.01;82.68
67279;DHT22;54193;53.746;10.058;2024-01-27T10:48:38;7.26;82.07
67279;DHT22;54193;53.746;10.058;2024-01-27T10:51:30;7.20;81.89
67279;DHT22;54193;53.746;10.058;2024-01-27T10:54:25;7.26;82.27
67279;DHT22;54193;53.746;10.058;2024-01-27T10:57:11;7.28;81.86
67279;DHT22;54193;53.746;10.058;2024-01-27T11:00:00;7.72;81.53
67279;DHT22;54193;53.746;10.058;2024-01-27T11:02:46;7.52;81.31
67279;DHT22;54193;53.746;10.058;2024-01-27T11:05:39;7.55;80.72
67279;DHT22;54193;53.746;10.058;2024-01-27T11:08:25;7.56;80.90
67279;DHT22;54193;53.746;10.058;2024-01-27T11:11:13;7.93;80.32
67279;DHT22;54193;53.746;10.058;2024-01-27T11:13:59;7.59;81.10
67279;DHT22;54193;53.746;10.058;2024-01-27T11:16:44;7.86;80.16
67279;DHT22;54193;53.746;10.058;2024-01-27T11:19:32;7.82;80.09
67279;DHT22;54193;53.746;10.058;2024-01-27T11:22:38;7.82;80.41
67279;DHT22;54193;53.746;10.058;2024-01-27T11:25:24;8.04;79.50
67279;DHT22;54193;53.746;10.058;2024-01-27T11:28:12;7.78;79.88
67279;DHT22;54193;53.746;10.058;2024-01-27T11:31:03;7.54;80.29
67279;DHT22;54193;53.746;10.058;2024-01-27T11:33:50;7.62;80.27
67279;DHT22;54193;53.746;10.058;2024-01-27T11:36:37;8.07;79.76
67279;DHT22;54193;53.746;10.058;2024-01-27T11:39:24;8.16;79.83
67279;DHT22;54193;53.746;10.058;2024-01-27T11:42:12;8.23;78.68
67279;DHT22;54193;53.746;10.058;2024-01-27T11:44:58;7.99;79.06
67279;DHT22;54193;53.746;10.058;2024-01-27T11:47:44;8.09;79.69
67279;DHT22;54193;53.746;10.058;2024-01-27T11:50:30;7.79;80.37
67279;DHT22;54193;53.746;10.058;2024-01-27T11:53:15;8.11;79.19
67279;DHT22;54193;53.746;10.058;2024-01-27T11:56:01;8.33;78.62
67279;DHT22;54193;53.746;10.058;2024-01-27T11:58:48;8.40;78.56
67279;DHT22;54193;53.746;10.058;2024-01-27T12:01:34;8.26;78.89
67279;DHT22;54193;53.746;10.058;2024-01-27T12:04:20;8.31;78.68
67279;DHT22;54193;53.746;10.058;2024-01-27T12:07:06;8.13;78.65
67279;DHT22;54193;53.746;10.058;2024-01-27T12:09:52;8.19;79.16
67279;DHT22;54193;53.746;10.058;2024-01-27T12:12:38;7.96;78.88
67279;DHT22;54193;53.746;10.058;2024-01-27T12:15:23;7.83;78.86
67279;DHT22;54193;53.746;10.058;2024-01-27T12:18:09;7.96;79.04
67279;DHT22;54193;53.746;10.058;2024-01-27T12:20:56;8.13;79.16
67279;DHT22;54193;53.746;10.058;2024-01-27T12:23:53;8.04;78.57
67279;DHT22;54193;53.746;10.058;2024-01-27T12:26:38;8.23;79.15
67279;DHT22;54193;53.746;10.058;2024-01-27T12:29:27;8.19;78.11
67279;DHT22;54193;53.746;10.058;2024-01-27T12:32:14;7.96;78.18
67279;DHT22;54193;53.746;10.058;2024-01-27T12:35:06;8.04;78.68
67279;DHT22;54193;53.746;10.058;2024-01-27T12:37:52;8.03;78.47
67279;DHT22;54193;53.746;10.058;2024-01-27T12:40:39;8.09;78.76
67279;DHT22;54193;53.746;10.058;2024-01-27T12:43:24;8.10;78.30
67279;DHT22;54193;53.746;10.058;2024-01-27T12:46:10;8.20;78.46
67279;DHT22;54193;53.746;10.058;2024-01-27T12:48:57;8.07;78.58
67279;DHT22;54193;53.746;10.058;2024-01-27T12:51:42;7.87;78.81
67279;DHT22;54193;53.746;10.058;2024-01-27T12:54:28;7.89;79.01
67279;DHT22;54193;53.746;10.058;2024-01-27T12:57:14;8.04;79.08
67279;DHT22;54193;53.746;10.058;2024-01-27T12:59:59;8.16;78.72
67279;DHT22;54193;53.746;10.058;2024-01-27T13:02:45;8.07;78.51
67279;DHT22;54193;53.746;10.058;2024-01-27T13:05:31;8.16;78.89
67279;DHT22;54193;53.746;10.058;2024-01-27T13:08:17;8.10;78.79
67279;DHT22;54193;53.746;10.058;2024-01-27T13:11:03;7.99;78.85
67279;DHT22;54193;53.746;10.058;2024-01-27T13:13:49;8.19;78.51
67279;DHT22;54193;53.746;10.058;2024-01-27T13:16:34;8.41;78.26
67279;DHT22;54193;53.746;10.058;2024-01-27T13:19:20;8.45;77.54
67279;DHT22;54193;53.746;10.058;2024-01-27T13:22:06;8.47;77.33
67279;DHT22;54193;53.746;10.058;2024-01-27T13:24:52;8.24;77.60
67279;DHT22;54193;53.746;10.058;2024-01-27T13:27:37;8.34;77.73
67279;DHT22;54193;53.746;10.058;2024-01-27T13:30:23;8.38;77.79
67279;DHT22;54193;53.746;10.058;2024-01-27T13:33:09;8.37;77.88
67279;DHT22;54193;53.746;10.058;2024-01-27T13:35:56;8.55;77.83
67279;DHT22;54193;53.746;10.058;2024-01-27T13:38:41;8.65;77.91
67279;DHT22;54193;53.746;10.058;2024-01-27T13:41:28;8.69;77.73
67279;DHT22;54193;53.746;10.058;2024-01-27T13:44:13;8.85;77.29
67279;DHT22;54193;53.746;10.058;2024-01-27T13:46:59;8.97;76.78
67279;DHT22;54193;53.746;10.058;2024-01-27T13:49:46;9.06;77.14
67279;DHT22;54193;53.746;10.058;2024-01-27T13:52:32;9.13;76.69
67279;DHT22;54193;53.746;10.058;2024-01-27T13:55:18;8.95;76.55
67279;DHT22;54193;53.746;10.058;2024-01-27T13:58:04;9.06;76.19
67279;DHT22;54193;53.746;10.058;2024-01-27T14:00:50;8.99;76.21
67279;DHT22;54193;53.746;10.058;2024-01-27T14:03:36;9.13;75.68
67279;DHT22;54193;53.746;10.058;2024-01-27T14:06:22;9.16;75.80
67279;DHT22;54193;53.746;10.058;2024-01-27T14:09:08;8.97;76.06
67279;DHT22;54193;53.746;10.058;2024-01-27T14:11:53;8.96;76.08
67279;DHT22;54193;53.746;10.058;2024-01-27T14:14:39;8.72;76.27
67279;DHT22;54193;53.746;10.058;2024-01-27T14:17:26;8.93;76.59
67279;DHT22;54193;53.746;10.058;2024-01-27T14:20:12;8.72;76.99
67279;DHT22;54193;53.746;10.058;2024-01-27T14:22:58;8.54;77.51
67279;DHT22;54193;53.746;10.058;2024-01-27T14:25:44;8.52;77.75
67279;DHT22;54193;53.746;10.058;2024-01-27T14:28:30;8.38;78.35
67279;DHT22;54193;53.746;10.058;2024-01-27T14:31:15;8.36;78.30
67279;DHT22;54193;53.746;10.058;2024-01-27T14:34:01;8.27;78.66
67279;DHT22;54193;53.746;10.058;2024-01-27T14:36:47;8.19;79.18
67279;DHT22;54193;53.746;10.058;2024-01-27T14:39:32;8.13;79.70
67279;DHT22;54193;53.746;10.058;2024-01-27T14:42:18;8.09;79.51
67279;DHT22;54193;53.746;10.058;2024-01-27T14:45:04;8.06;79.50
67279;DHT22;54193;53.746;10.058;2024-01-27T14:47:50;8.14;79.57
67279;DHT22;54193;53.746;10.058;2024-01-27T14:50:36;8.06;79.83
67279;DHT22;54193;53.746;10.058;2024-01-27T14:53:21;7.87;80.14
67279;DHT22;54193;53.746;10.058;2024-01-27T14:56:07;8.00;79.97
67279;DHT22;54193;53.746;10.058;2024-01-27T14:58:53;7.81;80.49
67279;DHT22;54193;53.746;10.058;2024-01-27T15:01:38;7.85;80.62
67279;DHT22;54193;53.746;10.058;2024-01-27T15:04:24;7.68;80.76
67279;DHT22;54193;53.746;10.058;2024-01-27T15:07:13;7.66;80.95
67279;DHT22;54193;53.746;10.058;2024-01-27T15:10:01;7.72;80.92
67279;DHT22;54193;53.746;10.058;2024-01-27T15:12:47;7.61;81.12
67279;DHT22;54193;53.746;10.058;2024-01-27T15:15:32;7.54;81.52
67279;DHT22;54193;53.746;10.058;2024-01-27T15:18:18;7.47;81.71
67279;DHT22;54193;53.746;10.058;2024-01-27T15:21:04;7.38;81.99
67279;DHT22;54193;53.746;10.058;2024-01-27T15:23:50;7.27;82.24
67279;DHT22;54193;53.746;10.058;2024-01-27T15:26:35;7.28;82.33
67279;DHT22;54193;53.746;10.058;2024-01-27T15:29:22;7.18;82.61
67279;DHT22;54193;53.746;10.058;2024-01-27T15:32:07;7.08;82.92
67279;DHT22;54193;53.746;10.058;2024-01-27T15:34:53;7.01;82.99
67279;DHT22;54193;53.746;10.058;2024-01-27T15:37:39;7.00;83.32
67279;DHT22;54193;53.746;10.058;2024-01-27T15:40:24;6.95;83.44
67279;DHT22;54193;53.746;10.058;2024-01-27T15:43:11;6.82;83.55
67279;DHT22;54193;53.746;10.058;2024-01-27T15:45:57;6.79;83.81
67279;DHT22;54193;53.746;10.058;2024-01-27T15:48:42;6.69;83.87
67279;DHT22;54193;53.746;10.058;2024-01-27T15:51:28;6.61;84.66
67279;DHT22;54193;53.746;10.058;2024-01-27T15:54:14;6.58;84.66
67279;DHT22;54193;53.746;10.058;2024-01-27T15:57:00;6.48;84.98
67279;DHT22;54193;53.746;10.058;2024-01-27T15:59:46;6.52;84.81
67279;DHT22;54193;53.746;10.058;2024-01-27T16:02:31;6.49;84.93
67279;DHT22;54193;53.746;10.058;2024-01-27T16:05:17;6.44;85.02
67279;DHT22;54193;53.746;10.058;2024-01-27T16:08:03;6.41;85.33
67279;DHT22;54193;53.746;10.058;2024-01-27T16:10:49;6.40;85.20
67279;DHT22;54193;53.746;10.058;2024-01-27T16:13:35;6.37;85.38
67279;DHT22;54193;53.746;10.058;2024-01-27T16:16:21;6.30;85.60
67279;DHT22;54193;53.746;10.058;2024-01-27T16:19:10;6.32;85.55
67279;DHT22;54193;53.746;10.058;2024-01-27T16:21:56;6.27;85.60
67279;DHT22;54193;53.746;10.058;2024-01-27T16:24:43;6.21;85.65
67279;DHT22;54193;53.746;10.058;2024-01-27T16:27:29;6.07;85.81
67279;DHT22;54193;53.746;10.058;2024-01-27T16:30:14;5.99;86.14
67279;DHT22;54193;53.746;10.058;2024-01-27T16:33:01;5.89;86.32
67279;DHT22;54193;53.746;10.058;2024-01-27T16:35:47;5.80;86.73
67279;DHT22;54193;53.746;10.058;2024-01-27T16:38:33;5.72;86.99
67279;DHT22;54193;53.746;10.058;2024-01-27T16:41:19;5.67;87.35
67279;DHT22;54193;53.746;10.058;2024-01-27T16:44:05;5.63;87.38
67279;DHT22;54193;53.746;10.058;2024-01-27T16:46:50;5.60;87.47
67279;DHT22;54193;53.746;10.058;2024-01-27T16:49:36;5.58;87.71
67279;DHT22;54193;53.746;10.058;2024-01-27T16:52:22;5.69;87.96
67279;DHT22;54193;53.746;10.058;2024-01-27T16:55:09;5.69;87.59
67279;DHT22;54193;53.746;10.058;2024-01-27T16:57:55;5.66;87.56
67279;DHT22;54193;53.746;10.058;2024-01-27T17:00:40;5.62;87.52
67279;DHT22;54193;53.746;10.058;2024-01-27T17:03:26;5.49;87.58
67279;DHT22;54193;53.746;10.058;2024-01-27T17:06:12;5.45;87.80
67279;DHT22;54193;53.746;10.058;2024-01-27T17:08:58;5.44;87.39
67279;DHT22;54193;53.746;10.058;2024-01-27T17:11:43;5.48;87.73
67279;DHT22;54193;53.746;10.058;2024-01-27T17:14:29;5.44;87.89
67279;DHT22;54193;53.746;10.058;2024-01-27T17:17:14;5.41;88.16
67279;DHT22;54193;53.746;10.058;2024-01-27T17:20:00;5.39;88.01
67279;DHT22;54193;53.746;10.058;2024-01-27T17:22:46;5.35;87.99
67279;DHT22;54193;53.746;10.058;2024-01-27T17:25:32;5.32;88.30
67279;DHT22;54193;53.746;10.058;2024-01-27T17:28:18;5.44;88.56
67279;DHT22;54193;53.746;10.058;2024-01-27T17:31:03;5.56;88.72